sensor_id;sensor_type;location;lat;lon;timestamp;pressure;altitude;pressure_sealevel;temperature;humidity
16738;BME280;17906;47.684;10.806;2023-01-25T00:01:22;94477.56;;;-3.77;100.00
16738;BME280;17906;47.684;10.806;2023-01-25T00:03:49;94477.69;;;-3.79;100.00
16738;BME280;17906;47.684;10.806;2023-01-25T00:06:18;94468.25;;;-3.71;100.00
16738;BME280;17906;47.684;10.806;2023-01-25T00:08:48;94478.59;;;-3.68;100.00
16738;BME280;17906;47.684;10.806;2023-01-25T00:11:14;94470.06;;;-3.72;100.00
16738;BME280;17906;47.684;10.806;2023-01-25T00:13:42;94467.06;;;-3.58;100.00
16738;BME280;17906;47.684;10.806;2023-01-25T00:16:09;94478.50;;;-3.57;100.00
16738;BME280;17906;47.684;10.806;2023-01-25T00:18:35;94476.78;;;-3.68;100.00
16738;BME280;17906;47.684;10.806;2023-01-25T00:21:12;94476.09;;;-3.70;100.00
16738;BME280;17906;47.684;10.806;2023-01-25T00:23:38;94481.19;;;-3.78;100.00
16738;BME280;17906;47.684;10.806;2023-01-25T00:26:05;94470.50;;;-3.67;100.00
16738;BME280;17906;47.684;10.806;2023-01-25T00:28:31;94474.22;;;-3.79;100.00
16738;BME280;17906;47.684;10.806;2023-01-25T00:30:58;94466.47;;;-3.71;100.00
16738;BME280;17906;47.684;10.806;2023-01-25T00:33:34;94469.97;;;-3.61;100.00
16738;BME280;17906;47.684;10.806;2023-01-25T00:36:26;94469.66;;;-3.67;100.00
16738;BME280;17906;47.684;10.806;2023-01-25T00:38:54;94462.78;;;-3.80;100.00
16738;BME280;17906;47.684;10.806;2023-01-25T00:41:22;94450.47;;;-3.90;100.00
16738;BME280;17906;47.684;10.806;2023-01-25T00:43:49;94453.03;;;-3.79;100.00
16738;BME280;17906;47.684;10.806;2023-01-25T00:46:16;94450.66;;;-3.72;100.00
16738;BME280;17906;47.684;10.806;2023-01-25T00:48:43;94454.47;;;-3.65;100.00
16738;BME280;17906;47.684;10.806;2023-01-25T00:51:11;94452.34;;;-3.71;100.00
16738;BME280;17906;47.684;10.806;2023-01-25T00:53:38;94449.59;;;-3.70;100.00
16738;BME280;17906;47.684;10.806;2023-01-25T00:56:05;94454.34;;;-3.64;100.00
16738;BME280;17906;47.684;10.806;2023-01-25T00:58:31;94454.66;;;-3.57;100.00
16738;BME280;17906;47.684;10.806;2023-01-25T01:00:58;94466.75;;;-3.64;100.00
16738;BME280;17906;47.684;10.806;2023-01-25T01:03:24;94463.41;;;-3.66;100.00
16738;BME280;17906;47.684;10.806;2023-01-25T01:05:58;94458.25;;;-3.68;100.00
16738;BME280;17906;47.684;10.806;2023-01-25T01:08:28;94457.72;;;-3.83;100.00
16738;BME280;17906;47.684;10.806;2023-01-25T01:10:58;94459.38;;;-3.91;100.00
16738;BME280;17906;47.684;10.806;2023-01-25T01:13:26;94458.66;;;-3.93;100.00
16738;BME280;17906;47.684;10.806;2023-01-25T01:15:53;94454.84;;;-4.00;100.00
16738;BME280;17906;47.684;10.806;2023-01-25T01:18:20;94462.81;;;-4.00;100.00
16738;BME280;17906;47.684;10.806;2023-01-25T01:20:49;94456.97;;;-3.94;100.00
16738;BME280;17906;47.684;10.806;2023-01-25T01:23:16;94456.53;;;-3.99;100.00
16738;BME280;17906;47.684;10.806;2023-01-25T01:25:44;94452.91;;;-3.98;100.00
16738;BME280;17906;47.684;10.806;2023-01-25T01:28:11;94453.75;;;-3.98;100.00
16738;BME280;17906;47.684;10.806;2023-01-25T01:30:38;94459.94;;;-3.88;100.00
16738;BME280;17906;47.684;10.806;2023-01-25T01:33:05;94451.56;;;-3.93;100.00
16738;BME280;17906;47.684;10.806;2023-01-25T01:35:32;94450.41;;;-4.00;100.00
16738;BME280;17906;47.684;10.806;2023-01-25T01:37:59;94458.06;;;-3.97;100.00
16738;BME280;17906;47.684;10.806;2023-01-25T01:40:25;94449.03;;;-3.94;100.00
16738;BME280;17906;47.684;10.806;2023-01-25T01:42:58;94454.09;;;-3.91;100.00
16738;BME280;17906;47.684;10.806;2023-01-25T01:45:50;94454.50;;;-3.86;100.00
16738;BME280;17906;47.684;10.806;2023-01-25T01:48:21;94459.44;;;-3.82;100.00
16738;BME280;17906;47.684;10.806;2023-01-25T01:50:54;94453.94;;;-3.90;100.00
16738;BME280;17906;47.684;10.806;2023-01-25T01:53:23;94447.94;;;-3.92;100.00
16738;BME280;17906;47.684;10.806;2023-01-25T01:55:50;94459.31;;;-4.01;100.00
16738;BME280;17906;47.684;10.806;2023-01-25T01:58:19;94451.19;;;-4.09;100.00
16738;BME280;17906;47.684;10.806;2023-01-25T02:00:47;94454.25;;;-4.04;100.00
16738;BME280;17906;47.684;10.806;2023-01-25T02:03:13;94453.75;;;-3.98;100.00
16738;BME280;17906;47.684;10.806;2023-01-25T02:05:46;94453.41;;;-3.84;100.00
16738;BME280;17906;47.684;10.806;2023-01-25T02:08:15;94454.25;;;-3.83;100.00
16738;BME280;17906;47.684;10.806;2023-01-25T02:10:43;94448.91;;;-3.93;100.00
16738;BME280;17906;47.684;10.806;2023-01-25T02:13:10;94444.78;;;-4.07;100.00
16738;BME280;17906;47.684;10.806;2023-01-25T02:15:41;94454.59;;;-3.97;100.00
16738;BME280;17906;47.684;10.806;2023-01-25T02:18:09;94446.22;;;-4.02;100.00
16738;BME280;17906;47.684;10.806;2023-01-25T02:20:38;94454.59;;;-3.97;100.00
16738;BME280;17906;47.684;10.806;2023-01-25T02:23:10;94451.56;;;-3.93;100.00
16738;BME280;17906;47.684;10.806;2023-01-25T02:25:40;94444.31;;;-3.91;100.00
16738;BME280;17906;47.684;10.806;2023-01-25T02:28:11;94452.34;;;-4.02;100.00
16738;BME280;17906;47.684;10.806;2023-01-25T02:30:40;94452.00;;;-4.09;100.00
16738;BME280;17906;47.684;10.806;2023-01-25T02:33:07;94451.31;;;-4.11;100.00
16738;BME280;17906;47.684;10.806;2023-01-25T02:35:40;94444.66;;;-4.05;100.00
16738;BME280;17906;47.684;10.806;2023-01-25T02:38:09;94441.06;;;-3.94;100.00
16738;BME280;17906;47.684;10.806;2023-01-25T02:40:43;94451.88;;;-3.86;100.00
16738;BME280;17906;47.684;10.806;2023-01-25T02:43:10;94451.72;;;-3.85;100.00
16738;BME280;17906;47.684;10.806;2023-01-25T02:45:37;94450.88;;;-3.85;100.00
16738;BME280;17906;47.684;10.806;2023-01-25T02:48:04;94444.28;;;-4.00;100.00
16738;BME280;17906;47.684;10.806;2023-01-25T02:50:31;94444.78;;;-4.07;100.00
16738;BME280;17906;47.684;10.806;2023-01-25T02:52:57;94435.56;;;-4.12;100.00
16738;BME280;17906;47.684;10.806;2023-01-25T02:55:24;94433.75;;;-4.12;100.00
16738;BME280;17906;47.684;10.806;2023-01-25T02:57:52;94436.06;;;-4.18;100.00
16738;BME280;17906;47.684;10.806;2023-01-25T03:00:19;94434.88;;;-4.05;100.00
16738;BME280;17906;47.684;10.806;2023-01-25T03:02:45;94430.38;;;-3.93;100.00
16738;BME280;17906;47.684;10.806;2023-01-25T03:05:12;94433.63;;;-4.10;100.00
16738;BME280;17906;47.684;10.806;2023-01-25T03:07:39;94427.75;;;-4.14;100.00
16738;BME280;17906;47.684;10.806;2023-01-25T03:10:06;94421.22;;;-4.10;100.00
16738;BME280;17906;47.684;10.806;2023-01-25T03:12:33;94425.75;;;-4.21;100.00
16738;BME280;17906;47.684;10.806;2023-01-25T03:15:01;94422.69;;;-4.17;100.00
16738;BME280;17906;47.684;10.806;2023-01-25T03:17:28;94418.50;;;-4.19;100.00
16738;BME280;17906;47.684;10.806;2023-01-25T03:19:55;94423.09;;;-4.21;100.00
16738;BME280;17906;47.684;10.806;2023-01-25T03:22:21;94413.44;;;-4.32;100.00
16738;BME280;17906;47.684;10.806;2023-01-25T03:24:48;94412.19;;;-4.28;100.00
16738;BME280;17906;47.684;10.806;2023-01-25T03:27:15;94408.69;;;-4.28;100.00
16738;BME280;17906;47.684;10.806;2023-01-25T03:29:42;94414.47;;;-4.23;100.00
16738;BME280;17906;47.684;10.806;2023-01-25T03:32:11;94405.53;;;-4.22;100.00
16738;BME280;17906;47.684;10.806;2023-01-25T03:34:38;94412.38;;;-4.20;100.00
16738;BME280;17906;47.684;10.806;2023-01-25T03:37:04;94406.44;;;-4.12;100.00
16738;BME280;17906;47.684;10.806;2023-01-25T03:39:31;94404.34;;;-4.09;100.00
16738;BME280;17906;47.684;10.806;2023-01-25T03:41:58;94405.13;;;-4.18;100.00
16738;BME280;17906;47.684;10.806;2023-01-25T03:44:24;94395.66;;;-4.20;100.00
16738;BME280;17906;47.684;10.806;2023-01-25T03:46:51;94409.59;;;-4.18;100.00
16738;BME280;17906;47.684;10.806;2023-01-25T03:49:19;94400.69;;;-4.17;100.00
16738;BME280;17906;47.684;10.806;2023-01-25T03:51:46;94409.72;;;-4.20;100.00
16738;BME280;17906;47.684;10.806;2023-01-25T03:54:12;94409.22;;;-4.14;100.00
16738;BME280;17906;47.684;10.806;2023-01-25T03:56:39;94402.22;;;-4.15;100.00
16738;BME280;17906;47.684;10.806;2023-01-25T03:59:05;94396.56;;;-4.10;100.00
16738;BME280;17906;47.684;10.806;2023-01-25T04:01:32;94390.00;;;-4.06;100.00
16738;BME280;17906;47.684;10.806;2023-01-25T04:03:59;94402.16;;;-4.03;100.00
16738;BME280;17906;47.684;10.806;2023-01-25T04:06:27;94398.22;;;-4.09;100.00
16738;BME280;17906;47.684;10.806;2023-01-25T04:08:53;94399.34;;;-4.12;100.00
16738;BME280;17906;47.684;10.806;2023-01-25T04:11:20;94398.63;;;-4.14;100.00
16738;BME280;17906;47.684;10.806;2023-01-25T04:13:46;94407.97;;;-4.10;100.00
16738;BME280;17906;47.684;10.806;2023-01-25T04:16:13;94392.38;;;-4.13;100.00
16738;BME280;17906;47.684;10.806;2023-01-25T04:18:40;94393.94;;;-4.31;100.00
16738;BME280;17906;47.684;10.806;2023-01-25T04:21:06;94386.97;;;-4.32;100.00
16738;BME280;17906;47.684;10.806;2023-01-25T04:23:34;94391.19;;;-4.20;100.00
16738;BME280;17906;47.684;10.806;2023-01-25T04:26:04;94393.56;;;-4.17;100.00
16738;BME280;17906;47.684;10.806;2023-01-25T04:28:31;94384.94;;;-4.19;100.00
16738;BME280;17906;47.684;10.806;2023-01-25T04:30:58;94389.06;;;-4.26;100.00
16738;BME280;17906;47.684;10.806;2023-01-25T04:33:25;94386.59;;;-4.18;100.00
16738;BME280;17906;47.684;10.806;2023-01-25T04:35:52;94385.91;;;-4.20;100.00
16738;BME280;17906;47.684;10.806;2023-01-25T04:38:19;94384.81;;;-4.17;100.00
16738;BME280;17906;47.684;10.806;2023-01-25T04:40:47;94381.38;;;-4.08;100.00
16738;BME280;17906;47.684;10.806;2023-01-25T04:43:17;94385.63;;;-4.17;100.00
16738;BME280;17906;47.684;10.806;2023-01-25T04:45:44;94386.03;;;-4.21;100.00
16738;BME280;17906;47.684;10.806;2023-01-25T04:48:12;94384.50;;;-4.24;100.00
16738;BME280;17906;47.684;10.806;2023-01-25T04:50:40;94384.03;;;-4.29;100.00
16738;BME280;17906;47.684;10.806;2023-01-25T04:53:08;94383.75;;;-4.36;100.00
16738;BME280;17906;47.684;10.806;2023-01-25T04:55:35;94400.31;;;-4.33;100.00
16738;BME280;17906;47.684;10.806;2023-01-25T04:58:03;94395.16;;;-4.56;100.00
16738;BME280;17906;47.684;10.806;2023-01-25T05:00:30;94390.09;;;-4.59;100.00
16738;BME280;17906;47.684;10.806;2023-01-25T05:02:56;94386.06;;;-4.63;100.00
16738;BME280;17906;47.684;10.806;2023-01-25T05:05:23;94381.16;;;-4.68;100.00
16738;BME280;17906;47.684;10.806;2023-01-25T05:07:49;94383.06;;;-4.70;100.00
16738;BME280;17906;47.684;10.806;2023-01-25T05:10:16;94374.38;;;-4.60;100.00
16738;BME280;17906;47.684;10.806;2023-01-25T05:12:42;94370.53;;;-4.56;100.00
16738;BME280;17906;47.684;10.806;2023-01-25T05:15:11;94374.56;;;-4.52;100.00
16738;BME280;17906;47.684;10.806;2023-01-25T05:17:37;94378.81;;;-4.61;100.00
16738;BME280;17906;47.684;10.806;2023-01-25T05:20:04;94364.31;;;-4.67;100.00
16738;BME280;17906;47.684;10.806;2023-01-25T05:22:31;94363.50;;;-4.67;100.00
16738;BME280;17906;47.684;10.806;2023-01-25T05:24:58;94359.41;;;-4.71;100.00
16738;BME280;17906;47.684;10.806;2023-01-25T05:27:26;94366.97;;;-4.67;100.00
16738;BME280;17906;47.684;10.806;2023-01-25T05:29:52;94352.78;;;-4.66;100.00
16738;BME280;17906;47.684;10.806;2023-01-25T05:32:22;94356.38;;;-4.67;100.00
16738;BME280;17906;47.684;10.806;2023-01-25T05:34:48;94346.25;;;-4.61;100.00
16738;BME280;17906;47.684;10.806;2023-01-25T05:37:17;94347.78;;;-4.59;100.00
16738;BME280;17906;47.684;10.806;2023-01-25T05:39:44;94351.28;;;-4.58;100.00
16738;BME280;17906;47.684;10.806;2023-01-25T05:42:11;94350.97;;;-4.65;100.00
16738;BME280;17906;47.684;10.806;2023-01-25T05:44:38;94351.53;;;-4.61;100.00
16738;BME280;17906;47.684;10.806;2023-01-25T05:47:05;94350.84;;;-4.64;100.00
16738;BME280;17906;47.684;10.806;2023-01-25T05:49:33;94349.84;;;-4.63;100.00
16738;BME280;17906;47.684;10.806;2023-01-25T05:52:00;94344.97;;;-4.67;100.00
16738;BME280;17906;47.684;10.806;2023-01-25T05:54:26;94340.38;;;-4.65;100.00
16738;BME280;17906;47.684;10.806;2023-01-25T05:56:53;94339.00;;;-4.59;100.00
16738;BME280;17906;47.684;10.806;2023-01-25T05:59:19;94347.47;;;-4.66;100.00
16738;BME280;17906;47.684;10.806;2023-01-25T06:01:46;94342.31;;;-4.46;100.00
16738;BME280;17906;47.684;10.806;2023-01-25T06:04:14;94346.44;;;-4.53;100.00
16738;BME280;17906;47.684;10.806;2023-01-25T06:06:42;94339.97;;;-4.60;100.00
16738;BME280;17906;47.684;10.806;2023-01-25T06:09:09;94348.63;;;-4.58;100.00
16738;BME280;17906;47.684;10.806;2023-01-25T06:11:36;94346.66;;;-4.66;100.00
16738;BME280;17906;47.684;10.806;2023-01-25T06:14:03;94330.84;;;-4.56;100.00
16738;BME280;17906;47.684;10.806;2023-01-25T06:16:30;94334.47;;;-4.57;100.00
16738;BME280;17906;47.684;10.806;2023-01-25T06:18:56;94336.84;;;-4.54;100.00
16738;BME280;17906;47.684;10.806;2023-01-25T06:21:23;94336.06;;;-4.45;100.00
16738;BME280;17906;47.684;10.806;2023-01-25T06:23:50;94339.22;;;-4.51;100.00
16738;BME280;17906;47.684;10.806;2023-01-25T06:26:17;94344.44;;;-4.61;100.00
16738;BME280;17906;47.684;10.806;2023-01-25T06:28:44;94341.72;;;-4.71;100.00
16738;BME280;17906;47.684;10.806;2023-01-25T06:31:13;94349.66;;;-4.71;100.00
16738;BME280;17906;47.684;10.806;2023-01-25T06:33:40;94348.97;;;-4.73;100.00
16738;BME280;17906;47.684;10.806;2023-01-25T06:36:10;94345.97;;;-4.58;100.00
16738;BME280;17906;47.684;10.806;2023-01-25T06:38:37;94341.78;;;-4.61;100.00
16738;BME280;17906;47.684;10.806;2023-01-25T06:41:07;94345.94;;;-4.68;100.00
16738;BME280;17906;47.684;10.806;2023-01-25T06:43:35;94352.00;;;-4.77;100.00
16738;BME280;17906;47.684;10.806;2023-01-25T06:46:05;94353.75;;;-4.67;100.00
16738;BME280;17906;47.684;10.806;2023-01-25T06:48:31;94347.22;;;-4.63;100.00
16738;BME280;17906;47.684;10.806;2023-01-25T06:50:59;94348.00;;;-4.72;100.00
16738;BME280;17906;47.684;10.806;2023-01-25T06:53:27;94339.91;;;-4.70;100.00
16738;BME280;17906;47.684;10.806;2023-01-25T06:55:58;94337.59;;;-4.64;100.00
16738;BME280;17906;47.684;10.806;2023-01-25T06:58:27;94344.13;;;-4.68;100.00
16738;BME280;17906;47.684;10.806;2023-01-25T07:00:59;94344.00;;;-4.66;100.00
16738;BME280;17906;47.684;10.806;2023-01-25T07:03:25;94339.53;;;-4.66;100.00
16738;BME280;17906;47.684;10.806;2023-01-25T07:05:56;94337.34;;;-4.60;100.00
16738;BME280;17906;47.684;10.806;2023-01-25T07:08:23;94336.38;;;-4.59;100.00
16738;BME280;17906;47.684;10.806;2023-01-25T07:10:52;94330.00;;;-4.57;100.00
16738;BME280;17906;47.684;10.806;2023-01-25T07:13:20;94331.28;;;-4.51;100.00
16738;BME280;17906;47.684;10.806;2023-01-25T07:15:52;94326.75;;;-4.60;100.00
16738;BME280;17906;47.684;10.806;2023-01-25T07:18:19;94328.34;;;-4.48;100.00
16738;BME280;17906;47.684;10.806;2023-01-25T07:20:46;94322.50;;;-4.52;100.00
16738;BME280;17906;47.684;10.806;2023-01-25T07:23:12;94323.19;;;-4.50;100.00
16738;BME280;17906;47.684;10.806;2023-01-25T07:25:42;94328.69;;;-4.42;100.00
16738;BME280;17906;47.684;10.806;2023-01-25T07:28:09;94319.44;;;-4.47;100.00
16738;BME280;17906;47.684;10.806;2023-01-25T07:30:35;94321.16;;;-4.46;100.00
16738;BME280;17906;47.684;10.806;2023-01-25T07:33:03;94314.09;;;-4.36;100.00
16738;BME280;17906;47.684;10.806;2023-01-25T07:35:30;94310.38;;;-4.54;100.00
16738;BME280;17906;47.684;10.806;2023-01-25T07:37:57;94311.72;;;-4.60;100.00
16738;BME280;17906;47.684;10.806;2023-01-25T07:40:23;94306.97;;;-4.66;100.00
16738;BME280;17906;47.684;10.806;2023-01-25T07:42:50;94310.72;;;-4.69;100.00
16738;BME280;17906;47.684;10.806;2023-01-25T07:45:17;94311.56;;;-4.68;100.00
16738;BME280;17906;47.684;10.806;2023-01-25T07:47:44;94320.97;;;-4.75;100.00
16738;BME280;17906;47.684;10.806;2023-01-25T07:50:12;94323.94;;;-4.69;100.00
16738;BME280;17906;47.684;10.806;2023-01-25T07:52:39;94312.56;;;-4.80;100.00
16738;BME280;17906;47.684;10.806;2023-01-25T07:55:06;94316.38;;;-4.73;100.00
16738;BME280;17906;47.684;10.806;2023-01-25T07:57:33;94313.09;;;-4.86;100.00
16738;BME280;17906;47.684;10.806;2023-01-25T07:59:59;94306.28;;;-4.89;100.00
16738;BME280;17906;47.684;10.806;2023-01-25T08:02:26;94306.13;;;-4.87;100.00
16738;BME280;17906;47.684;10.806;2023-01-25T08:04:52;94303.50;;;-4.87;100.00
16738;BME280;17906;47.684;10.806;2023-01-25T08:07:20;94298.34;;;-4.68;100.00
16738;BME280;17906;47.684;10.806;2023-01-25T08:09:47;94296.19;;;-4.74;100.00
16738;BME280;17906;47.684;10.806;2023-01-25T08:12:14;94298.34;;;-4.58;100.00
16738;BME280;17906;47.684;10.806;2023-01-25T08:14:41;94295.34;;;-4.54;100.00
16738;BME280;17906;47.684;10.806;2023-01-25T08:17:08;94284.63;;;-4.52;100.00
16738;BME280;17906;47.684;10.806;2023-01-25T08:19:34;94289.97;;;-4.43;100.00
16738;BME280;17906;47.684;10.806;2023-01-25T08:22:01;94287.81;;;-4.49;100.00
16738;BME280;17906;47.684;10.806;2023-01-25T08:24:29;94292.63;;;-4.64;100.00
16738;BME280;17906;47.684;10.806;2023-01-25T08:26:56;94280.91;;;-4.40;100.00
16738;BME280;17906;47.684;10.806;2023-01-25T08:29:22;94289.25;;;-4.45;100.00
16738;BME280;17906;47.684;10.806;2023-01-25T08:31:52;94277.88;;;-4.36;100.00
16738;BME280;17906;47.684;10.806;2023-01-25T08:34:19;94275.28;;;-4.56;100.00
16738;BME280;17906;47.684;10.806;2023-01-25T08:36:46;94275.00;;;-4.53;100.00
16738;BME280;17906;47.684;10.806;2023-01-25T08:39:14;94271.97;;;-4.49;100.00
16738;BME280;17906;47.684;10.806;2023-01-25T08:41:43;94280.63;;;-4.47;100.00
16738;BME280;17906;47.684;10.806;2023-01-25T08:44:10;94266.81;;;-4.50;100.00
16738;BME280;17906;47.684;10.806;2023-01-25T08:46:37;94270.47;;;-4.42;100.00
16738;BME280;17906;47.684;10.806;2023-01-25T08:49:04;94269.31;;;-4.49;100.00
16738;BME280;17906;47.684;10.806;2023-01-25T08:51:32;94270.75;;;-4.45;100.00
16738;BME280;17906;47.684;10.806;2023-01-25T08:54:01;94267.59;;;-4.59;100.00
16738;BME280;17906;47.684;10.806;2023-01-25T08:56:28;94264.09;;;-4.60;100.00
16738;BME280;17906;47.684;10.806;2023-01-25T08:58:56;94263.63;;;-4.44;100.00
16738;BME280;17906;47.684;10.806;2023-01-25T09:01:22;94269.91;;;-4.45;100.00
16738;BME280;17906;47.684;10.806;2023-01-25T09:03:49;94263.38;;;-4.41;100.00
16738;BME280;17906;47.684;10.806;2023-01-25T09:06:17;94258.25;;;-4.33;100.00
16738;BME280;17906;47.684;10.806;2023-01-25T09:08:44;94259.78;;;-4.30;100.00
16738;BME280;17906;47.684;10.806;2023-01-25T09:11:12;94252.44;;;-4.17;100.00
16738;BME280;17906;47.684;10.806;2023-01-25T09:13:40;94241.31;;;-4.11;100.00
16738;BME280;17906;47.684;10.806;2023-01-25T09:16:10;94249.81;;;-4.08;100.00
16738;BME280;17906;47.684;10.806;2023-01-25T09:18:38;94251.91;;;-4.11;100.00
16738;BME280;17906;47.684;10.806;2023-01-25T09:21:06;94256.84;;;-4.27;100.00
16738;BME280;17906;47.684;10.806;2023-01-25T09:23:33;94247.69;;;-4.23;100.00
16738;BME280;17906;47.684;10.806;2023-01-25T09:26:00;94239.91;;;-4.15;100.00
16738;BME280;17906;47.684;10.806;2023-01-25T09:28:28;94249.09;;;-4.19;100.00
16738;BME280;17906;47.684;10.806;2023-01-25T09:30:55;94245.34;;;-4.47;100.00
16738;BME280;17906;47.684;10.806;2023-01-25T09:33:25;94237.41;;;-4.47;100.00
16738;BME280;17906;47.684;10.806;2023-01-25T09:35:51;94237.66;;;-4.60;100.00
16738;BME280;17906;47.684;10.806;2023-01-25T09:38:18;94246.66;;;-4.42;100.00
16738;BME280;17906;47.684;10.806;2023-01-25T09:40:53;94240.69;;;-4.34;100.00
16738;BME280;17906;47.684;10.806;2023-01-25T09:43:30;94243.75;;;-4.29;100.00
16738;BME280;17906;47.684;10.806;2023-01-25T09:46:01;94242.00;;;-4.49;100.00
16738;BME280;17906;47.684;10.806;2023-01-25T09:48:43;94237.22;;;-4.35;100.00
16738;BME280;17906;47.684;10.806;2023-01-25T09:51:19;94235.25;;;-4.32;100.00
16738;BME280;17906;47.684;10.806;2023-01-25T09:53:51;94238.09;;;-4.24;100.00
16738;BME280;17906;47.684;10.806;2023-01-25T09:56:23;94236.31;;;-4.14;100.00
16738;BME280;17906;47.684;10.806;2023-01-25T09:58:52;94229.56;;;-4.28;100.00
16738;BME280;17906;47.684;10.806;2023-01-25T10:01:24;94215.78;;;-4.31;100.00
16738;BME280;17906;47.684;10.806;2023-01-25T10:03:57;94228.78;;;-4.49;100.00
16738;BME280;17906;47.684;10.806;2023-01-25T10:06:34;94231.50;;;-4.30;100.00
16738;BME280;17906;47.684;10.806;2023-01-25T10:09:06;94223.06;;;-4.14;100.00
16738;BME280;17906;47.684;10.806;2023-01-25T10:11:37;94228.72;;;-4.28;100.00
16738;BME280;17906;47.684;10.806;2023-01-25T10:14:11;94231.34;;;-4.38;100.00
16738;BME280;17906;47.684;10.806;2023-01-25T10:16:46;94230.34;;;-4.37;100.00
16738;BME280;17906;47.684;10.806;2023-01-25T10:19:20;94219.94;;;-4.29;100.00
16738;BME280;17906;47.684;10.806;2023-01-25T10:21:53;94220.00;;;-4.10;100.00
16738;BME280;17906;47.684;10.806;2023-01-25T10:24:33;94217.03;;;-4.26;100.00
16738;BME280;17906;47.684;10.806;2023-01-25T10:27:18;94216.22;;;-4.17;100.00
16738;BME280;17906;47.684;10.806;2023-01-25T10:29:49;94217.38;;;-4.00;100.00
16738;BME280;17906;47.684;10.806;2023-01-25T10:32:20;94211.63;;;-4.15;100.00
16738;BME280;17906;47.684;10.806;2023-01-25T10:34:50;94212.19;;;-4.21;100.00
16738;BME280;17906;47.684;10.806;2023-01-25T10:37:22;94205.09;;;-4.11;100.00
16738;BME280;17906;47.684;10.806;2023-01-25T10:39:55;94198.84;;;-4.00;100.00
16738;BME280;17906;47.684;10.806;2023-01-25T10:42:25;94205.97;;;-4.00;100.00
16738;BME280;17906;47.684;10.806;2023-01-25T10:44:52;94202.03;;;-4.06;100.00
16738;BME280;17906;47.684;10.806;2023-01-25T10:47:22;94191.84;;;-4.20;100.00
16738;BME280;17906;47.684;10.806;2023-01-25T10:49:53;94194.47;;;-4.20;100.00
16738;BME280;17906;47.684;10.806;2023-01-25T10:52:21;94188.94;;;-4.08;100.00
16738;BME280;17906;47.684;10.806;2023-01-25T10:55:14;94184.22;;;-3.94;100.00
16738;BME280;17906;47.684;10.806;2023-01-25T10:57:42;94176.41;;;-3.86;100.00
16738;BME280;17906;47.684;10.806;2023-01-25T11:00:23;94178.34;;;-3.98;100.00
16738;BME280;17906;47.684;10.806;2023-01-25T11:02:51;94178.63;;;-4.01;100.00
16738;BME280;17906;47.684;10.806;2023-01-25T11:05:29;94183.63;;;-4.08;100.00
16738;BME280;17906;47.684;10.806;2023-01-25T11:07:56;94171.94;;;-4.05;100.00
16738;BME280;17906;47.684;10.806;2023-01-25T11:10:31;94161.22;;;-4.03;100.00
16738;BME280;17906;47.684;10.806;2023-01-25T11:13:19;94167.19;;;-3.82;100.00
16738;BME280;17906;47.684;10.806;2023-01-25T11:15:49;94159.13;;;-3.90;100.00
16738;BME280;17906;47.684;10.806;2023-01-25T11:18:18;94150.22;;;-3.89;100.00
16738;BME280;17906;47.684;10.806;2023-01-25T11:20:47;94145.31;;;-3.84;100.00
16738;BME280;17906;47.684;10.806;2023-01-25T11:23:28;94140.44;;;-3.98;100.00
16738;BME280;17906;47.684;10.806;2023-01-25T11:26:11;94143.22;;;-4.10;100.00
16738;BME280;17906;47.684;10.806;2023-01-25T11:28:38;94146.84;;;-4.11;100.00
16738;BME280;17906;47.684;10.806;2023-01-25T11:31:08;94137.94;;;-4.00;100.00
16738;BME280;17906;47.684;10.806;2023-01-25T11:33:36;94135.44;;;-4.01;100.00
16738;BME280;17906;47.684;10.806;2023-01-25T11:36:19;94139.34;;;-3.96;100.00
16738;BME280;17906;47.684;10.806;2023-01-25T11:38:56;94137.81;;;-3.98;100.00
16738;BME280;17906;47.684;10.806;2023-01-25T11:41:32;94126.25;;;-3.88;100.00
16738;BME280;17906;47.684;10.806;2023-01-25T11:44:19;94110.19;;;-3.86;100.00
16738;BME280;17906;47.684;10.806;2023-01-25T11:46:58;94114.66;;;-3.67;100.00
16738;BME280;17906;47.684;10.806;2023-01-25T11:49:41;94110.06;;;-3.75;100.00
16738;BME280;17906;47.684;10.806;2023-01-25T11:52:22;94120.38;;;-3.72;100.00
16738;BME280;17906;47.684;10.806;2023-01-25T11:55:02;94123.44;;;-3.86;100.00
16738;BME280;17906;47.684;10.806;2023-01-25T11:57:43;94110.34;;;-3.97;100.00
16738;BME280;17906;47.684;10.806;2023-01-25T12:00:38;94105.88;;;-4.07;100.00
16738;BME280;17906;47.684;10.806;2023-01-25T12:06:07;94094.84;;;-3.83;100.00
16738;BME280;17906;47.684;10.806;2023-01-25T12:08:55;94096.97;;;-3.96;100.00
16738;BME280;17906;47.684;10.806;2023-01-25T12:11:39;94090.97;;;-3.98;100.00
16738;BME280;17906;47.684;10.806;2023-01-25T12:14:19;94080.94;;;-3.94;100.00
16738;BME280;17906;47.684;10.806;2023-01-25T12:17:03;94070.47;;;-3.77;100.00
16738;BME280;17906;47.684;10.806;2023-01-25T12:19:45;94074.78;;;-3.66;100.00
16738;BME280;17906;47.684;10.806;2023-01-25T12:22:36;94070.44;;;-3.48;100.00
16738;BME280;17906;47.684;10.806;2023-01-25T12:25:16;94068.75;;;-3.49;100.00
16738;BME280;17906;47.684;10.806;2023-01-25T12:30:47;94064.88;;;-3.64;100.00
16738;BME280;17906;47.684;10.806;2023-01-25T12:33:17;94063.16;;;-3.45;100.00
16738;BME280;17906;47.684;10.806;2023-01-25T12:35:48;94056.25;;;-3.76;100.00
16738;BME280;17906;47.684;10.806;2023-01-25T12:38:21;94039.81;;;-3.89;100.00
16738;BME280;17906;47.684;10.806;2023-01-25T12:40:53;94038.69;;;-3.86;100.00
16738;BME280;17906;47.684;10.806;2023-01-25T12:43:25;94039.97;;;-3.90;100.00
16738;BME280;17906;47.684;10.806;2023-01-25T12:45:54;94044.59;;;-4.02;100.00
16738;BME280;17906;47.684;10.806;2023-01-25T12:48:24;94039.28;;;-4.12;100.00
16738;BME280;17906;47.684;10.806;2023-01-25T12:50:54;94029.69;;;-4.22;100.00
16738;BME280;17906;47.684;10.806;2023-01-25T12:53:23;94028.84;;;-4.03;100.00
16738;BME280;17906;47.684;10.806;2023-01-25T12:55:52;94018.50;;;-4.07;100.00
16738;BME280;17906;47.684;10.806;2023-01-25T12:58:26;94016.84;;;-3.98;100.00